sensor_id;sensor_type;location;lat;lon;timestamp;temperature;humidity
13115;DHT22;6623;52.120;8.660;2024-03-17T00:01:36;20.90;44.80
13115;DHT22;6623;52.120;8.660;2024-03-17T00:04:02;20.80;44.70
13115;DHT22;6623;52.120;8.660;2024-03-17T00:06:29;20.80;44.70
13115;DHT22;6623;52.120;8.660;2024-03-17T00:08:54;20.80;44.70
13115;DHT22;6623;52.120;8.660;2024-03-17T00:11:20;20.90;44.80
13115;DHT22;6623;52.120;8.660;2024-03-17T00:13:46;20.80;44.70
13115;DHT22;6623;52.120;8.660;2024-03-17T00:16:12;20.90;44.70
13115;DHT22;6623;52.120;8.660;2024-03-17T00:18:41;20.80;44.70
13115;DHT22;6623;52.120;8.660;2024-03-17T00:21:07;20.80;44.70
13115;DHT22;6623;52.120;8.660;2024-03-17T00:23:34;20.90;44.70
13115;DHT22;6623;52.120;8.660;2024-03-17T00:25:59;20.90;44.70
13115;DHT22;6623;52.120;8.660;2024-03-17T00:28:25;20.90;45.30
13115;DHT22;6623;52.120;8.660;2024-03-17T00:30:51;20.90;44.70
13115;DHT22;6623;52.120;8.660;2024-03-17T00:33:16;20.90;44.70
13115;DHT22;6623;52.120;8.660;2024-03-17T00:35:44;20.80;44.60
13115;DHT22;6623;52.120;8.660;2024-03-17T00:38:10;20.80;44.60
13115;DHT22;6623;52.120;8.660;2024-03-17T00:40:37;20.80;44.60
13115;DHT22;6623;52.120;8.660;2024-03-17T00:43:02;20.80;44.60
13115;DHT22;6623;52.120;8.660;2024-03-17T00:45:28;20.80;44.60
13115;DHT22;6623;52.120;8.660;2024-03-17T00:47:53;20.80;44.60
13115;DHT22;6623;52.120;8.660;2024-03-17T00:50:19;20.80;44.60
13115;DHT22;6623;52.120;8.660;2024-03-17T00:52:44;20.80;44.60
13115;DHT22;6623;52.120;8.660;2024-03-17T00:55:10;20.80;44.60
13115;DHT22;6623;52.120;8.660;2024-03-17T00:57:36;20.80;44.60
13115;DHT22;6623;52.120;8.660;2024-03-17T01:00:03;20.80;44.60
13115;DHT22;6623;52.120;8.660;2024-03-17T01:02:29;20.80;44.50
13115;DHT22;6623;52.120;8.660;2024-03-17T01:04:54;20.80;44.60
13115;DHT22;6623;52.120;8.660;2024-03-17T01:07:20;20.80;44.60
13115;DHT22;6623;52.120;8.660;2024-03-17T01:09:47;20.80;44.50
13115;DHT22;6623;52.120;8.660;2024-03-17T01:12:13;20.80;44.50
13115;DHT22;6623;52.120;8.660;2024-03-17T01:14:39;20.80;44.50
13115;DHT22;6623;52.120;8.660;2024-03-17T01:17:04;20.80;44.50
13115;DHT22;6623;52.120;8.660;2024-03-17T01:19:30;20.80;44.50
13115;DHT22;6623;52.120;8.660;2024-03-17T01:21:56;20.80;44.50
13115;DHT22;6623;52.120;8.660;2024-03-17T01:24:22;20.80;44.50
13115;DHT22;6623;52.120;8.660;2024-03-17T01:26:47;20.80;44.50
13115;DHT22;6623;52.120;8.660;2024-03-17T01:29:13;20.80;44.50
13115;DHT22;6623;52.120;8.660;2024-03-17T01:31:38;20.80;44.40
13115;DHT22;6623;52.120;8.660;2024-03-17T01:34:04;20.80;44.50
13115;DHT22;6623;52.120;8.660;2024-03-17T01:36:30;20.80;44.40
13115;DHT22;6623;52.120;8.660;2024-03-17T01:38:55;20.80;44.40
13115;DHT22;6623;52.120;8.660;2024-03-17T01:41:21;20.80;44.40
13115;DHT22;6623;52.120;8.660;2024-03-17T01:43:46;20.80;44.50
13115;DHT22;6623;52.120;8.660;2024-03-17T01:46:14;20.80;44.40
13115;DHT22;6623;52.120;8.660;2024-03-17T01:48:40;20.80;44.40
13115;DHT22;6623;52.120;8.660;2024-03-17T01:51:07;20.80;44.40
13115;DHT22;6623;52.120;8.660;2024-03-17T01:53:34;20.80;44.40
13115;DHT22;6623;52.120;8.660;2024-03-17T01:56:00;20.80;44.40
13115;DHT22;6623;52.120;8.660;2024-03-17T01:58:25;20.80;44.40
13115;DHT22;6623;52.120;8.660;2024-03-17T02:00:52;20.80;44.40
13115;DHT22;6623;52.120;8.660;2024-03-17T02:03:18;20.80;44.40
13115;DHT22;6623;52.120;8.660;2024-03-17T02:05:44;20.80;44.40
13115;DHT22;6623;52.120;8.660;2024-03-17T02:08:10;20.80;44.40
13115;DHT22;6623;52.120;8.660;2024-03-17T02:10:37;20.80;44.40
13115;DHT22;6623;52.120;8.660;2024-03-17T02:13:03;20.80;44.40
13115;DHT22;6623;52.120;8.660;2024-03-17T02:15:29;20.80;44.40
13115;DHT22;6623;52.120;8.660;2024-03-17T02:17:55;20.80;44.40
13115;DHT22;6623;52.120;8.660;2024-03-17T02:20:21;20.80;44.30
13115;DHT22;6623;52.120;8.660;2024-03-17T02:22:50;20.80;44.30
13115;DHT22;6623;52.120;8.660;2024-03-17T02:25:15;20.80;44.30
13115;DHT22;6623;52.120;8.660;2024-03-17T02:27:41;20.80;44.30
13115;DHT22;6623;52.120;8.660;2024-03-17T02:30:07;20.80;44.30
13115;DHT22;6623;52.120;8.660;2024-03-17T02:32:35;20.80;44.30
13115;DHT22;6623;52.120;8.660;2024-03-17T02:35:00;20.80;44.30
13115;DHT22;6623;52.120;8.660;2024-03-17T02:37:26;20.80;44.30
13115;DHT22;6623;52.120;8.660;2024-03-17T02:39:52;20.70;44.20
13115;DHT22;6623;52.120;8.660;2024-03-17T02:42:18;20.70;44.20
13115;DHT22;6623;52.120;8.660;2024-03-17T02:44:43;20.70;44.20
13115;DHT22;6623;52.120;8.660;2024-03-17T02:47:09;20.70;44.20
13115;DHT22;6623;52.120;8.660;2024-03-17T02:49:35;20.70;44.20
13115;DHT22;6623;52.120;8.660;2024-03-17T02:52:07;20.70;44.20
13115;DHT22;6623;52.120;8.660;2024-03-17T02:54:35;20.70;44.20
13115;DHT22;6623;52.120;8.660;2024-03-17T02:57:01;20.70;44.20
13115;DHT22;6623;52.120;8.660;2024-03-17T02:59:26;20.70;44.20
13115;DHT22;6623;52.120;8.660;2024-03-17T03:01:52;20.70;44.20
13115;DHT22;6623;52.120;8.660;2024-03-17T03:04:18;20.70;44.10
13115;DHT22;6623;52.120;8.660;2024-03-17T03:06:43;20.70;44.10
13115;DHT22;6623;52.120;8.660;2024-03-17T03:09:09;20.70;44.10
13115;DHT22;6623;52.120;8.660;2024-03-17T03:11:46;20.70;44.10
13115;DHT22;6623;52.120;8.660;2024-03-17T03:14:12;20.70;44.10
13115;DHT22;6623;52.120;8.660;2024-03-17T03:16:38;20.70;44.10
13115;DHT22;6623;52.120;8.660;2024-03-17T03:19:04;20.70;44.20
13115;DHT22;6623;52.120;8.660;2024-03-17T03:21:31;20.70;44.10
13115;DHT22;6623;52.120;8.660;2024-03-17T03:23:56;20.70;44.10
13115;DHT22;6623;52.120;8.660;2024-03-17T03:26:22;20.70;44.10
13115;DHT22;6623;52.120;8.660;2024-03-17T03:28:48;20.70;44.10
13115;DHT22;6623;52.120;8.660;2024-03-17T03:31:15;20.70;44.10
13115;DHT22;6623;52.120;8.660;2024-03-17T03:33:41;20.70;44.10
13115;DHT22;6623;52.120;8.660;2024-03-17T03:36:11;20.70;44.10
13115;DHT22;6623;52.120;8.660;2024-03-17T03:38:37;20.70;44.10
13115;DHT22;6623;52.120;8.660;2024-03-17T03:43:32;20.60;44.00
13115;DHT22;6623;52.120;8.660;2024-03-17T03:46:00;20.70;44.10
13115;DHT22;6623;52.120;8.660;2024-03-17T03:48:25;20.60;44.00
13115;DHT22;6623;52.120;8.660;2024-03-17T03:50:51;20.70;44.00
13115;DHT22;6623;52.120;8.660;2024-03-17T03:53:16;20.70;44.10
13115;DHT22;6623;52.120;8.660;2024-03-17T03:55:42;20.70;44.00
13115;DHT22;6623;52.120;8.660;2024-03-17T03:58:07;20.60;44.00
13115;DHT22;6623;52.120;8.660;2024-03-17T04:00:33;20.70;44.00
13115;DHT22;6623;52.120;8.660;2024-03-17T04:02:59;20.70;44.00
13115;DHT22;6623;52.120;8.660;2024-03-17T04:05:27;20.70;44.00
13115;DHT22;6623;52.120;8.660;2024-03-17T04:07:52;20.70;44.00
13115;DHT22;6623;52.120;8.660;2024-03-17T04:10:18;20.70;44.60
13115;DHT22;6623;52.120;8.660;2024-03-17T04:12:46;20.70;44.00
13115;DHT22;6623;52.120;8.660;2024-03-17T04:15:11;20.70;43.90
13115;DHT22;6623;52.120;8.660;2024-03-17T04:17:37;20.70;43.90
13115;DHT22;6623;52.120;8.660;2024-03-17T04:20:04;20.60;43.90
13115;DHT22;6623;52.120;8.660;2024-03-17T04:22:33;20.60;43.90
13115;DHT22;6623;52.120;8.660;2024-03-17T04:24:59;20.70;43.90
13115;DHT22;6623;52.120;8.660;2024-03-17T04:27:25;20.70;43.90
13115;DHT22;6623;52.120;8.660;2024-03-17T04:29:53;20.60;43.90
13115;DHT22;6623;52.120;8.660;2024-03-17T04:32:19;20.60;43.90
13115;DHT22;6623;52.120;8.660;2024-03-17T04:34:45;20.70;43.90
13115;DHT22;6623;52.120;8.660;2024-03-17T04:37:11;20.60;43.90
13115;DHT22;6623;52.120;8.660;2024-03-17T04:39:38;20.60;43.80
13115;DHT22;6623;52.120;8.660;2024-03-17T04:42:05;20.60;43.90
13115;DHT22;6623;52.120;8.660;2024-03-17T04:44:31;20.70;43.90
13115;DHT22;6623;52.120;8.660;2024-03-17T04:46:57;20.60;43.80
13115;DHT22;6623;52.120;8.660;2024-03-17T04:49:23;20.60;43.80
13115;DHT22;6623;52.120;8.660;2024-03-17T04:51:48;20.60;43.80
13115;DHT22;6623;52.120;8.660;2024-03-17T04:54:14;20.60;43.80
13115;DHT22;6623;52.120;8.660;2024-03-17T04:56:39;20.60;43.80
13115;DHT22;6623;52.120;8.660;2024-03-17T04:59:05;20.60;43.80
13115;DHT22;6623;52.120;8.660;2024-03-17T05:01:30;20.60;43.80
13115;DHT22;6623;52.120;8.660;2024-03-17T05:04:03;20.60;43.80
13115;DHT22;6623;52.120;8.660;2024-03-17T05:06:29;20.60;43.80
13115;DHT22;6623;52.120;8.660;2024-03-17T05:08:55;20.60;43.80
13115;DHT22;6623;52.120;8.660;2024-03-17T05:11:21;20.60;43.80
13115;DHT22;6623;52.120;8.660;2024-03-17T05:13:46;20.60;43.80
13115;DHT22;6623;52.120;8.660;2024-03-17T05:16:12;20.60;43.80
13115;DHT22;6623;52.120;8.660;2024-03-17T05:18:37;20.60;43.80
13115;DHT22;6623;52.120;8.660;2024-03-17T05:21:07;20.60;43.80
13115;DHT22;6623;52.120;8.660;2024-03-17T05:23:35;20.60;43.80
13115;DHT22;6623;52.120;8.660;2024-03-17T05:26:01;20.60;43.80
13115;DHT22;6623;52.120;8.660;2024-03-17T05:28:28;20.60;43.80
13115;DHT22;6623;52.120;8.660;2024-03-17T05:30:54;20.60;43.80
13115;DHT22;6623;52.120;8.660;2024-03-17T05:33:21;20.60;43.80
13115;DHT22;6623;52.120;8.660;2024-03-17T05:35:50;20.60;43.80
13115;DHT22;6623;52.120;8.660;2024-03-17T05:38:20;20.60;43.80
13115;DHT22;6623;52.120;8.660;2024-03-17T05:41:12;20.60;43.80
13115;DHT22;6623;52.120;8.660;2024-03-17T05:43:38;20.60;43.80
13115;DHT22;6623;52.120;8.660;2024-03-17T05:46:05;20.60;43.80
13115;DHT22;6623;52.120;8.660;2024-03-17T05:48:35;20.60;43.80
13115;DHT22;6623;52.120;8.660;2024-03-17T05:51:03;20.60;43.70
13115;DHT22;6623;52.120;8.660;2024-03-17T05:53:29;20.50;43.70
13115;DHT22;6623;52.120;8.660;2024-03-17T05:55:58;20.60;43.80
13115;DHT22;6623;52.120;8.660;2024-03-17T05:58:24;20.60;43.70
13115;DHT22;6623;52.120;8.660;2024-03-17T06:00:50;20.60;43.80
13115;DHT22;6623;52.120;8.660;2024-03-17T06:03:15;20.60;43.70
13115;DHT22;6623;52.120;8.660;2024-03-17T06:05:42;20.60;43.70
13115;DHT22;6623;52.120;8.660;2024-03-17T06:08:08;20.60;43.70
13115;DHT22;6623;52.120;8.660;2024-03-17T06:10:35;20.50;43.60
13115;DHT22;6623;52.120;8.660;2024-03-17T06:13:02;20.60;43.70
13115;DHT22;6623;52.120;8.660;2024-03-17T06:15:28;20.60;43.70
13115;DHT22;6623;52.120;8.660;2024-03-17T06:17:54;20.50;43.70
13115;DHT22;6623;52.120;8.660;2024-03-17T06:20:20;20.60;43.70
13115;DHT22;6623;52.120;8.660;2024-03-17T06:22:46;20.60;43.70
13115;DHT22;6623;52.120;8.660;2024-03-17T06:25:12;20.60;43.70
13115;DHT22;6623;52.120;8.660;2024-03-17T06:27:38;20.50;43.60
13115;DHT22;6623;52.120;8.660;2024-03-17T06:30:04;20.60;43.70
13115;DHT22;6623;52.120;8.660;2024-03-17T06:32:33;20.60;43.60
13115;DHT22;6623;52.120;8.660;2024-03-17T06:35:02;20.50;43.60
13115;DHT22;6623;52.120;8.660;2024-03-17T06:37:27;20.60;43.60
13115;DHT22;6623;52.120;8.660;2024-03-17T06:39:53;20.50;43.60
13115;DHT22;6623;52.120;8.660;2024-03-17T06:42:19;20.60;43.90
13115;DHT22;6623;52.120;8.660;2024-03-17T06:44:44;20.50;43.60
13115;DHT22;6623;52.120;8.660;2024-03-17T06:47:10;20.50;43.60
13115;DHT22;6623;52.120;8.660;2024-03-17T06:49:36;20.60;43.70
13115;DHT22;6623;52.120;8.660;2024-03-17T06:52:01;20.50;43.60
13115;DHT22;6623;52.120;8.660;2024-03-17T06:54:27;20.50;43.60
13115;DHT22;6623;52.120;8.660;2024-03-17T06:56:52;20.50;43.60
13115;DHT22;6623;52.120;8.660;2024-03-17T06:59:18;20.50;43.50
13115;DHT22;6623;52.120;8.660;2024-03-17T07:01:43;20.50;43.60
13115;DHT22;6623;52.120;8.660;2024-03-17T07:04:10;20.60;43.60
13115;DHT22;6623;52.120;8.660;2024-03-17T07:06:36;20.50;43.50
13115;DHT22;6623;52.120;8.660;2024-03-17T07:09:02;20.50;43.60
13115;DHT22;6623;52.120;8.660;2024-03-17T07:11:27;20.50;44.20
13115;DHT22;6623;52.120;8.660;2024-03-17T07:13:53;20.50;43.50
13115;DHT22;6623;52.120;8.660;2024-03-17T07:16:18;20.50;43.50
13115;DHT22;6623;52.120;8.660;2024-03-17T07:18:44;20.50;43.50
13115;DHT22;6623;52.120;8.660;2024-03-17T07:21:10;20.50;43.50
13115;DHT22;6623;52.120;8.660;2024-03-17T07:23:36;20.50;43.50
13115;DHT22;6623;52.120;8.660;2024-03-17T07:26:02;20.50;43.50
13115;DHT22;6623;52.120;8.660;2024-03-17T07:28:30;20.50;43.50
13115;DHT22;6623;52.120;8.660;2024-03-17T07:30:57;20.50;43.50
13115;DHT22;6623;52.120;8.660;2024-03-17T07:33:24;20.50;43.50
13115;DHT22;6623;52.120;8.660;2024-03-17T07:35:54;20.50;43.50
13115;DHT22;6623;52.120;8.660;2024-03-17T07:38:25;20.50;43.50
13115;DHT22;6623;52.120;8.660;2024-03-17T07:41:02;20.50;43.60
13115;DHT22;6623;52.120;8.660;2024-03-17T07:43:29;20.50;43.50
13115;DHT22;6623;52.120;8.660;2024-03-17T07:46:10;20.50;43.50
13115;DHT22;6623;52.120;8.660;2024-03-17T07:48:38;20.50;43.60
13115;DHT22;6623;52.120;8.660;2024-03-17T07:51:09;20.50;43.50
13115;DHT22;6623;52.120;8.660;2024-03-17T07:53:36;20.50;43.60
13115;DHT22;6623;52.120;8.660;2024-03-17T07:58:29;20.50;43.50
13115;DHT22;6623;52.120;8.660;2024-03-17T08:00:58;20.50;43.50
13115;DHT22;6623;52.120;8.660;2024-03-17T08:03:34;20.50;43.60
13115;DHT22;6623;52.120;8.660;2024-03-17T08:06:01;20.50;43.50
13115;DHT22;6623;52.120;8.660;2024-03-17T08:08:27;20.50;43.50
13115;DHT22;6623;52.120;8.660;2024-03-17T08:10:53;20.50;43.50
13115;DHT22;6623;52.120;8.660;2024-03-17T08:13:20;20.50;43.50
13115;DHT22;6623;52.120;8.660;2024-03-17T08:15:49;20.50;43.50
13115;DHT22;6623;52.120;8.660;2024-03-17T08:18:20;20.50;43.50
13115;DHT22;6623;52.120;8.660;2024-03-17T08:20:45;20.50;43.60
13115;DHT22;6623;52.120;8.660;2024-03-17T08:23:12;20.50;43.50
13115;DHT22;6623;52.120;8.660;2024-03-17T08:25:38;20.50;43.50
13115;DHT22;6623;52.120;8.660;2024-03-17T08:28:04;20.50;43.50
13115;DHT22;6623;52.120;8.660;2024-03-17T08:30:30;20.50;43.50
13115;DHT22;6623;52.120;8.660;2024-03-17T08:32:56;20.50;43.50
13115;DHT22;6623;52.120;8.660;2024-03-17T08:35:22;20.50;43.50
13115;DHT22;6623;52.120;8.660;2024-03-17T08:37:47;20.50;43.50
13115;DHT22;6623;52.120;8.660;2024-03-17T08:40:13;20.60;43.50
13115;DHT22;6623;52.120;8.660;2024-03-17T08:42:39;20.50;43.50
13115;DHT22;6623;52.120;8.660;2024-03-17T08:45:06;20.50;43.50
13115;DHT22;6623;52.120;8.660;2024-03-17T08:47:31;20.60;43.50
13115;DHT22;6623;52.120;8.660;2024-03-17T08:49:57;20.50;43.50
13115;DHT22;6623;52.120;8.660;2024-03-17T08:52:23;20.50;43.50
13115;DHT22;6623;52.120;8.660;2024-03-17T08:54:49;20.60;43.50
13115;DHT22;6623;52.120;8.660;2024-03-17T08:57:17;20.50;43.40
13115;DHT22;6623;52.120;8.660;2024-03-17T08:59:45;20.60;43.50
13115;DHT22;6623;52.120;8.660;2024-03-17T09:02:13;20.60;44.10
13115;DHT22;6623;52.120;8.660;2024-03-17T09:04:40;20.60;43.50
13115;DHT22;6623;52.120;8.660;2024-03-17T09:07:06;20.60;43.50
13115;DHT22;6623;52.120;8.660;2024-03-17T09:09:31;20.50;43.40
13115;DHT22;6623;52.120;8.660;2024-03-17T09:11:57;20.50;43.50
13115;DHT22;6623;52.120;8.660;2024-03-17T09:14:22;20.50;43.40
13115;DHT22;6623;52.120;8.660;2024-03-17T09:16:48;20.60;43.50
13115;DHT22;6623;52.120;8.660;2024-03-17T09:19:14;20.60;43.50
13115;DHT22;6623;52.120;8.660;2024-03-17T09:21:40;20.60;43.50
13115;DHT22;6623;52.120;8.660;2024-03-17T09:24:06;20.50;43.50
13115;DHT22;6623;52.120;8.660;2024-03-17T09:26:35;20.60;43.50
13115;DHT22;6623;52.120;8.660;2024-03-17T09:29:01;20.60;43.50
13115;DHT22;6623;52.120;8.660;2024-03-17T09:31:26;20.60;43.50
13115;DHT22;6623;52.120;8.660;2024-03-17T09:33:52;20.60;43.50
13115;DHT22;6623;52.120;8.660;2024-03-17T09:36:18;20.60;43.60
13115;DHT22;6623;52.120;8.660;2024-03-17T09:38:43;20.60;43.60
13115;DHT22;6623;52.120;8.660;2024-03-17T09:41:25;20.60;43.60
13115;DHT22;6623;52.120;8.660;2024-03-17T09:43:53;20.60;43.60
13115;DHT22;6623;52.120;8.660;2024-03-17T09:46:19;20.60;43.60
13115;DHT22;6623;52.120;8.660;2024-03-17T09:48:46;20.60;43.60
13115;DHT22;6623;52.120;8.660;2024-03-17T09:51:25;20.60;43.60
13115;DHT22;6623;52.120;8.660;2024-03-17T09:53:51;20.60;43.60
13115;DHT22;6623;52.120;8.660;2024-03-17T09:56:19;20.60;44.20
13115;DHT22;6623;52.120;8.660;2024-03-17T09:58:46;20.60;43.60
13115;DHT22;6623;52.120;8.660;2024-03-17T10:01:11;20.60;43.60
13115;DHT22;6623;52.120;8.660;2024-03-17T10:03:47;20.60;43.60
13115;DHT22;6623;52.120;8.660;2024-03-17T10:06:29;20.60;43.60
13115;DHT22;6623;52.120;8.660;2024-03-17T10:08:59;20.60;43.60
13115;DHT22;6623;52.120;8.660;2024-03-17T10:11:34;20.60;43.60
13115;DHT22;6623;52.120;8.660;2024-03-17T10:16:27;20.60;43.60
13115;DHT22;6623;52.120;8.660;2024-03-17T10:21:39;20.60;43.70
13115;DHT22;6623;52.120;8.660;2024-03-17T10:24:13;20.60;43.70
13115;DHT22;6623;52.120;8.660;2024-03-17T10:26:42;20.60;43.70
13115;DHT22;6623;52.120;8.660;2024-03-17T10:29:28;20.60;43.70
13115;DHT22;6623;52.120;8.660;2024-03-17T10:32:12;20.60;43.70
13115;DHT22;6623;52.120;8.660;2024-03-17T10:34:38;20.60;43.70
13115;DHT22;6623;52.120;8.660;2024-03-17T10:37:15;20.60;43.70
13115;DHT22;6623;52.120;8.660;2024-03-17T10:39:42;20.60;43.80
13115;DHT22;6623;52.120;8.660;2024-03-17T10:42:10;20.60;43.80
13115;DHT22;6623;52.120;8.660;2024-03-17T10:44:38;20.60;43.80
13115;DHT22;6623;52.120;8.660;2024-03-17T10:47:04;20.60;43.80
13115;DHT22;6623;52.120;8.660;2024-03-17T10:49:36;20.70;43.80
13115;DHT22;6623;52.120;8.660;2024-03-17T10:52:04;20.70;43.80
13115;DHT22;6623;52.120;8.660;2024-03-17T10:54:31;20.70;43.80
13115;DHT22;6623;52.120;8.660;2024-03-17T10:59:59;20.70;43.90
13115;DHT22;6623;52.120;8.660;2024-03-17T11:02:26;20.70;43.90
13115;DHT22;6623;52.120;8.660;2024-03-17T11:05:05;20.70;43.90
13115;DHT22;6623;52.120;8.660;2024-03-17T11:07:31;20.70;43.90
13115;DHT22;6623;52.120;8.660;2024-03-17T11:09:59;20.70;43.90
13115;DHT22;6623;52.120;8.660;2024-03-17T11:12:54;20.70;44.00
13115;DHT22;6623;52.120;8.660;2024-03-17T11:20:42;20.70;44.10
13115;DHT22;6623;52.120;8.660;2024-03-17T11:23:27;20.70;44.00
13115;DHT22;6623;52.120;8.660;2024-03-17T11:25:54;20.70;44.00
13115;DHT22;6623;52.120;8.660;2024-03-17T11:31:33;20.70;44.10
13115;DHT22;6623;52.120;8.660;2024-03-17T11:33:59;20.70;44.10
13115;DHT22;6623;52.120;8.660;2024-03-17T11:36:30;20.70;44.10
13115;DHT22;6623;52.120;8.660;2024-03-17T11:41:40;20.70;44.10
13115;DHT22;6623;52.120;8.660;2024-03-17T11:46:54;20.70;44.10
13115;DHT22;6623;52.120;8.660;2024-03-17T11:49:34;20.70;44.20
13115;DHT22;6623;52.120;8.660;2024-03-17T11:52:13;20.70;44.20
13115;DHT22;6623;52.120;8.660;2024-03-17T11:54:41;20.70;44.20
13115;DHT22;6623;52.120;8.660;2024-03-17T11:57:11;20.70;44.10
13115;DHT22;6623;52.120;8.660;2024-03-17T11:59:38;20.70;44.80
13115;DHT22;6623;52.120;8.660;2024-03-17T12:02:31;20.70;44.10
13115;DHT22;6623;52.120;8.660;2024-03-17T12:04:59;20.70;44.10
13115;DHT22;6623;52.120;8.660;2024-03-17T12:07:25;20.70;44.10
13115;DHT22;6623;52.120;8.660;2024-03-17T12:09:53;20.70;44.10
13115;DHT22;6623;52.120;8.660;2024-03-17T12:14:50;20.70;44.10
13115;DHT22;6623;52.120;8.660;2024-03-17T12:17:21;20.70;44.10
13115;DHT22;6623;52.120;8.660;2024-03-17T12:19:47;20.70;44.10
13115;DHT22;6623;52.120;8.660;2024-03-17T12:22:20;20.70;44.10
13115;DHT22;6623;52.120;8.660;2024-03-17T12:24:51;20.70;44.10
13115;DHT22;6623;52.120;8.660;2024-03-17T12:27:24;20.70;44.10
13115;DHT22;6623;52.120;8.660;2024-03-17T12:29:53;20.70;44.10
13115;DHT22;6623;52.120;8.660;2024-03-17T12:32:23;20.70;44.10
13115;DHT22;6623;52.120;8.660;2024-03-17T12:34:56;20.70;44.10
13115;DHT22;6623;52.120;8.660;2024-03-17T12:37:26;20.80;44.80
13115;DHT22;6623;52.120;8.660;2024-03-17T12:39:56;20.70;44.10
13115;DHT22;6623;52.120;8.660;2024-03-17T12:42:26;20.70;44.10
13115;DHT22;6623;52.120;8.660;2024-03-17T12:44:56;20.70;44.10
13115;DHT22;6623;52.120;8.660;2024-03-17T12:47:23;20.80;44.10
13115;DHT22;6623;52.120;8.660;2024-03-17T12:49:52;20.80;44.10
13115;DHT22;6623;52.120;8.660;2024-03-17T12:52:28;20.80;44.10
13115;DHT22;6623;52.120;8.660;2024-03-17T12:54:58;20.80;44.10
13115;DHT22;6623;52.120;8.660;2024-03-17T12:57:42;20.80;44.10
13115;DHT22;6623;52.120;8.660;2024-03-17T13:00:26;20.80;44.10
13115;DHT22;6623;52.120;8.660;2024-03-17T13:03:00;20.70;44.00
13115;DHT22;6623;52.120;8.660;2024-03-17T13:05:26;20.80;44.10
13115;DHT22;6623;52.120;8.660;2024-03-17T13:07:53;20.80;44.10
13115;DHT22;6623;52.120;8.660;2024-03-17T13:10:20;20.80;44.10
13115;DHT22;6623;52.120;8.660;2024-03-17T13:12:47;20.80;44.10
13115;DHT22;6623;52.120;8.660;2024-03-17T13:15:17;20.80;44.10
13115;DHT22;6623;52.120;8.660;2024-03-17T13:17:44;20.80;44.10
13115;DHT22;6623;52.120;8.660;2024-03-17T13:20:14;20.80;44.10
13115;DHT22;6623;52.120;8.660;2024-03-17T13:22:43;20.80;44.10
13115;DHT22;6623;52.120;8.660;2024-03-17T13:25:17;20.80;44.10
13115;DHT22;6623;52.120;8.660;2024-03-17T13:27:44;20.80;44.00
13115;DHT22;6623;52.120;8.660;2024-03-17T13:30:14;20.80;44.00
13115;DHT22;6623;52.120;8.660;2024-03-17T13:32:40;20.80;44.00
13115;DHT22;6623;52.120;8.660;2024-03-17T13:35:15;20.80;44.00
13115;DHT22;6623;52.120;8.660;2024-03-17T13:37:42;20.80;44.00
13115;DHT22;6623;52.120;8.660;2024-03-17T13:40:07;20.80;43.90
13115;DHT22;6623;52.120;8.660;2024-03-17T13:42:35;20.80;43.90
13115;DHT22;6623;52.120;8.660;2024-03-17T13:45:01;20.80;44.00
13115;DHT22;6623;52.120;8.660;2024-03-17T13:47:26;20.80;44.00
13115;DHT22;6623;52.120;8.660;2024-03-17T13:49:52;20.80;43.90
13115;DHT22;6623;52.120;8.660;2024-03-17T13:52:17;20.80;44.00
13115;DHT22;6623;52.120;8.660;2024-03-17T13:54:43;20.80;43.90
13115;DHT22;6623;52.120;8.660;2024-03-17T13:57:09;20.80;43.90
13115;DHT22;6623;52.120;8.660;2024-03-17T13:59:34;20.80;43.90
13115;DHT22;6623;52.120;8.660;2024-03-17T14:02:01;20.80;43.90
13115;DHT22;6623;52.120;8.660;2024-03-17T14:04:27;20.80;43.90
13115;DHT22;6623;52.120;8.660;2024-03-17T14:06:53;20.80;43.90
13115;DHT22;6623;52.120;8.660;2024-03-17T14:09:18;20.80;43.90
13115;DHT22;6623;52.120;8.660;2024-03-17T14:11:44;20.80;43.90
13115;DHT22;6623;52.120;8.660;2024-03-17T14:14:14;20.80;43.90
13115;DHT22;6623;52.120;8.660;2024-03-17T14:16:39;20.80;43.90
13115;DHT22;6623;52.120;8.660;2024-03-17T14:19:06;20.80;43.90
13115;DHT22;6623;52.120;8.660;2024-03-17T14:21:31;20.80;43.90
13115;DHT22;6623;52.120;8.660;2024-03-17T14:23:57;20.80;43.90
13115;DHT22;6623;52.120;8.660;2024-03-17T14:26:22;20.80;43.90
13115;DHT22;6623;52.120;8.660;2024-03-17T14:28:49;20.80;43.90
13115;DHT22;6623;52.120;8.660;2024-03-17T14:31:16;20.80;43.90
13115;DHT22;6623;52.120;8.660;2024-03-17T14:33:43;20.80;43.90
13115;DHT22;6623;52.120;8.660;2024-03-17T14:36:09;20.80;43.80
13115;DHT22;6623;52.120;8.660;2024-03-17T14:38:35;20.80;43.80
13115;DHT22;6623;52.120;8.660;2024-03-17T14:41:00;20.80;43.80
13115;DHT22;6623;52.120;8.660;2024-03-17T14:43:26;20.80;43.80
13115;DHT22;6623;52.120;8.660;2024-03-17T14:45:52;20.80;43.80
13115;DHT22;6623;52.120;8.660;2024-03-17T14:48:17;20.80;43.70
13115;DHT22;6623;52.120;8.660;2024-03-17T14:50:43;20.80;43.80
13115;DHT22;6623;52.120;8.660;2024-03-17T14:53:08;20.80;43.70
13115;DHT22;6623;52.120;8.660;2024-03-17T14:55:34;20.80;43.70
13115;DHT22;6623;52.120;8.660;2024-03-17T14:57:59;20.80;43.70
13115;DHT22;6623;52.120;8.660;2024-03-17T15:00:28;20.80;43.70
13115;DHT22;6623;52.120;8.660;2024-03-17T15:02:56;20.80;43.70
13115;DHT22;6623;52.120;8.660;2024-03-17T15:05:22;20.80;43.70
13115;DHT22;6623;52.120;8.660;2024-03-17T15:07:49;20.80;43.70
13115;DHT22;6623;52.120;8.660;2024-03-17T15:10:14;20.80;43.70
13115;DHT22;6623;52.120;8.660;2024-03-17T15:12:41;20.80;43.70
13115;DHT22;6623;52.120;8.660;2024-03-17T15:15:07;20.80;43.70
13115;DHT22;6623;52.120;8.660;2024-03-17T15:17:34;20.80;43.60
13115;DHT22;6623;52.120;8.660;2024-03-17T15:20:00;20.80;43.60
13115;DHT22;6623;52.120;8.660;2024-03-17T15:22:26;20.80;43.60
13115;DHT22;6623;52.120;8.660;2024-03-17T15:24:52;20.80;43.60
13115;DHT22;6623;52.120;8.660;2024-03-17T15:27:17;20.80;43.60
13115;DHT22;6623;52.120;8.660;2024-03-17T15:29:43;20.80;43.60
13115;DHT22;6623;52.120;8.660;2024-03-17T15:32:08;20.80;43.60
13115;DHT22;6623;52.120;8.660;2024-03-17T15:34:35;20.80;43.60
13115;DHT22;6623;52.120;8.660;2024-03-17T15:37:03;20.80;43.60
13115;DHT22;6623;52.120;8.660;2024-03-17T15:39:28;20.80;43.60
13115;DHT22;6623;52.120;8.660;2024-03-17T15:41:54;20.80;43.60
13115;DHT22;6623;52.120;8.660;2024-03-17T15:44:20;20.80;43.60
13115;DHT22;6623;52.120;8.660;2024-03-17T15:46:46;20.80;43.60
13115;DHT22;6623;52.120;8.660;2024-03-17T15:49:14;20.80;43.50
13115;DHT22;6623;52.120;8.660;2024-03-17T15:51:39;20.80;43.50
13115;DHT22;6623;52.120;8.660;2024-03-17T15:54:06;20.80;43.50
13115;DHT22;6623;52.120;8.660;2024-03-17T15:56:32;20.80;43.60
13115;DHT22;6623;52.120;8.660;2024-03-17T15:58:59;20.80;43.60
13115;DHT22;6623;52.120;8.660;2024-03-17T16:01:24;20.80;43.50
13115;DHT22;6623;52.120;8.660;2024-03-17T16:03:51;20.80;43.50
13115;DHT22;6623;52.120;8.660;2024-03-17T16:06:19;20.80;43.50
13115;DHT22;6623;52.120;8.660;2024-03-17T16:08:48;20.80;43.50
13115;DHT22;6623;52.120;8.660;2024-03-17T16:11:17;20.80;43.50
13115;DHT22;6623;52.120;8.660;2024-03-17T16:13:45;20.80;43.50
13115;DHT22;6623;52.120;8.660;2024-03-17T16:16:15;20.80;43.40